Time;durP1;ratioP1;P1;durP2;ratioP2;P2;SDS_P1;SDS_P2;PMS_P1;PMS_P2;Temp;Humidity;BMP_temperature;BMP_pressure;BME280_temperature;BME280_humidity;BME280_pressure;Samples;Min_cycle;Max_cycle;Signal;HPM_P1;HPM_P2
2021/12/11 00:02:11;;;;;;;10.48;6.03;;;;;;;;;;5082357;28;20052;-63
2021/12/11 00:04:40;;;;;;;17.05;7.93;;;;;;;;;;5082569;28;20147;-63
2021/12/11 00:07:09;;;;;;;20.92;9.48;;;;;;;;;;5075287;28;20041;-63
2021/12/11 00:09:38;;;;;;;16.17;8.60;;;;;;;;;;5077339;28;20127;-63
2021/12/11 00:12:04;;;;;;;15.32;7.75;;;;;;;;;;5079801;28;20135;-63
2021/12/11 00:14:33;;;;;;;12.07;6.65;;;;;;;;;;5078003;28;20040;-63
2021/12/11 00:16:59;;;;;;;16.52;8.43;;;;;;;;;;5076197;28;20131;-63
2021/12/11 00:19:28;;;;;;;16.07;8.80;;;;;;;;;;5077897;28;20474;-63
2021/12/11 00:22:01;;;;;;;15.95;8.90;;;;;;;;;;5079695;28;20710;-63
2021/12/11 00:24:30;;;;;;;18.40;8.75;;;;;;;;;;5076413;28;20679;-63
2021/12/11 00:27:00;;;;;;;16.05;9.02;;;;;;;;;;5080809;28;20055;-63
2021/12/11 00:29:27;;;;;;;18.23;9.65;;;;;;;;;;5078815;28;20102;-63
2021/12/11 00:32:05;;;;;;;19.33;9.25;;;;;;;;;;5076877;28;20088;-63
2021/12/11 00:34:33;;;;;;;21.17;9.55;;;;;;;;;;5076572;28;20147;-63
2021/12/11 00:37:01;;;;;;;18.27;10.10;;;;;;;;;;5076905;28;20131;-63
2021/12/11 00:39:28;;;;;;;16.75;9.68;;;;;;;;;;5077974;28;20120;-63
2021/12/11 00:41:56;;;;;;;15.95;9.45;;;;;;;;;;5077745;28;20055;-63
2021/12/11 00:44:37;;;;;;;18.38;9.45;;;;;;;;;;5072175;28;20555;-63
2021/12/11 00:47:09;;;;;;;16.45;9.30;;;;;;;;;;5077845;28;20106;-63
2021/12/11 00:49:42;;;;;;;18.65;9.38;;;;;;;;;;5078052;28;20052;-63
2021/12/11 00:52:09;;;;;;;18.35;9.25;;;;;;;;;;5075626;28;20138;-63
2021/12/11 00:54:40;;;;;;;21.50;10.57;;;;;;;;;;5076767;28;20047;-63
2021/12/11 00:57:08;;;;;;;20.80;9.90;;;;;;;;;;5078678;28;20062;-63
2021/12/11 00:59:35;;;;;;;21.40;10.07;;;;;;;;;;5077192;28;20056;-63
2021/12/11 01:02:03;;;;;;;18.23;9.43;;;;;;;;;;5078814;28;20186;-63
2021/12/11 01:04:41;;;;;;;17.40;9.40;;;;;;;;;;5079980;28;20048;-63
2021/12/11 01:07:16;;;;;;;20.23;9.77;;;;;;;;;;5077998;28;20134;-63
2021/12/11 01:09:47;;;;;;;16.13;8.55;;;;;;;;;;5079483;28;20054;-63
2021/12/11 01:12:19;;;;;;;18.80;10.38;;;;;;;;;;5078446;28;20407;-63
2021/12/11 01:14:52;;;;;;;17.70;9.32;;;;;;;;;;5080417;28;20127;-63
2021/12/11 01:17:38;;;;;;;19.67;10.10;;;;;;;;;;5077319;28;20127;-63
2021/12/11 01:20:08;;;;;;;18.38;10.10;;;;;;;;;;5083313;28;20679;-63
2021/12/11 01:22:36;;;;;;;18.55;10.10;;;;;;;;;;5085415;28;20127;-63
2021/12/11 01:25:02;;;;;;;13.25;7.50;;;;;;;;;;5082339;28;20056;-63
2021/12/11 01:27:29;;;;;;;16.40;9.93;;;;;;;;;;5081327;28;20139;-63
2021/12/11 01:29:57;;;;;;;18.42;10.48;;;;;;;;;;5084039;28;20103;-63
2021/12/11 01:32:25;;;;;;;19.67;10.95;;;;;;;;;;5080700;28;20080;-63
2021/12/11 01:34:52;;;;;;;18.33;10.65;;;;;;;;;;5080503;28;20131;-63
2021/12/11 01:37:19;;;;;;;19.70;10.55;;;;;;;;;;5079387;28;20072;-63
2021/12/11 01:39:47;;;;;;;16.60;9.07;;;;;;;;;;5083520;28;20513;-63
2021/12/11 01:42:16;;;;;;;19.40;10.00;;;;;;;;;;5082720;28;20294;-63
2021/12/11 01:44:43;;;;;;;20.15;11.02;;;;;;;;;;5083124;28;20138;-63
2021/12/11 01:47:19;;;;;;;19.65;10.45;;;;;;;;;;5084428;28;20044;-63
2021/12/11 01:49:52;;;;;;;21.08;10.43;;;;;;;;;;5087014;28;20059;-63
2021/12/11 01:52:29;;;;;;;19.85;11.15;;;;;;;;;;5082982;28;20048;-63
2021/12/11 01:54:56;;;;;;;20.95;10.93;;;;;;;;;;5085446;28;20076;-63
2021/12/11 01:57:24;;;;;;;20.00;11.13;;;;;;;;;;5080882;28;20861;-63
2021/12/11 01:59:54;;;;;;;21.17;11.13;;;;;;;;;;5083154;28;20131;-63
2021/12/11 02:02:32;;;;;;;21.42;11.75;;;;;;;;;;5077762;28;20131;-63
2021/12/11 02:05:03;;;;;;;22.42;10.68;;;;;;;;;;5077020;28;20556;-63
2021/12/11 02:07:35;;;;;;;19.70;10.73;;;;;;;;;;5080886;28;20087;-63
2021/12/11 02:10:09;;;;;;;22.55;11.75;;;;;;;;;;5079151;28;20567;-63
2021/12/11 02:12:39;;;;;;;20.75;11.25;;;;;;;;;;5082947;28;20482;-63
2021/12/11 02:15:09;;;;;;;22.33;11.60;;;;;;;;;;5079647;28;20202;-63
2021/12/11 02:17:46;;;;;;;22.58;11.38;;;;;;;;;;5080093;28;20140;-63
2021/12/11 02:20:14;;;;;;;20.90;11.23;;;;;;;;;;5081708;28;20052;-63
2021/12/11 02:22:43;;;;;;;23.15;11.32;;;;;;;;;;5079415;28;20122;-63
2021/12/11 02:25:17;;;;;;;23.17;12.00;;;;;;;;;;5078632;28;20076;-63
2021/12/11 02:27:55;;;;;;;24.98;12.90;;;;;;;;;;5078703;28;20045;-63
2021/12/11 02:30:41;;;;;;;25.65;11.63;;;;;;;;;;5080193;28;20135;-63
2021/12/11 02:33:13;;;;;;;24.33;12.30;;;;;;;;;;5078120;28;20064;-63
2021/12/11 02:35:46;;;;;;;26.15;12.57;;;;;;;;;;5086800;28;20091;-63
2021/12/11 02:38:20;;;;;;;27.83;14.05;;;;;;;;;;5083423;28;20139;-63
2021/12/11 02:40:53;;;;;;;24.77;12.93;;;;;;;;;;5082090;28;20456;-63
2021/12/11 02:43:28;;;;;;;21.23;12.15;;;;;;;;;;5076034;28;20068;-63
2021/12/11 02:46:03;;;;;;;22.80;12.85;;;;;;;;;;5077792;28;20079;-63
2021/12/11 02:48:33;;;;;;;27.00;12.90;;;;;;;;;;5077993;28;20709;-63
2021/12/11 02:51:12;;;;;;;25.13;13.23;;;;;;;;;;5082386;28;20635;-63
2021/12/11 02:53:41;;;;;;;27.63;14.02;;;;;;;;;;5078360;28;20135;-63
2021/12/11 02:56:13;;;;;;;28.77;14.20;;;;;;;;;;5078827;28;20044;-63
2021/12/11 02:58:42;;;;;;;27.35;14.02;;;;;;;;;;5084842;28;20083;-63
2021/12/11 03:01:10;;;;;;;30.45;14.35;;;;;;;;;;5078955;28;20083;-63
2021/12/11 03:03:40;;;;;;;27.83;13.67;;;;;;;;;;5074664;28;20153;-63
2021/12/11 03:06:18;;;;;;;24.15;12.43;;;;;;;;;;5080199;28;20095;-63
2021/12/11 03:08:46;;;;;;;26.30;12.90;;;;;;;;;;5080821;28;20124;-63
2021/12/11 03:11:14;;;;;;;24.50;13.27;;;;;;;;;;5079420;28;20147;-63
2021/12/11 03:13:44;;;;;;;26.80;12.57;;;;;;;;;;5079463;28;20050;-63
2021/12/11 03:16:11;;;;;;;28.02;14.13;;;;;;;;;;5077453;28;20052;-63
2021/12/11 03:18:38;;;;;;;29.27;14.55;;;;;;;;;;5075886;28;20048;-64
2021/12/11 03:21:04;;;;;;;26.00;13.20;;;;;;;;;;5076203;28;20098;-63
2021/12/11 03:23:31;;;;;;;19.77;10.23;;;;;;;;;;5076682;28;20047;-63
2021/12/11 03:25:58;;;;;;;28.50;13.80;;;;;;;;;;5081396;28;20099;-63
2021/12/11 03:28:25;;;;;;;24.90;12.73;;;;;;;;;;5082005;28;20083;-63
2021/12/11 03:30:57;;;;;;;30.75;14.48;;;;;;;;;;5075677;28;20123;-64
2021/12/11 03:33:26;;;;;;;35.67;15.23;;;;;;;;;;5079872;28;20621;-63
2021/12/11 03:35:55;;;;;;;28.15;14.20;;;;;;;;;;5080405;28;20095;-63
2021/12/11 03:38:22;;;;;;;28.70;13.60;;;;;;;;;;5082919;28;20080;-63
2021/12/11 03:40:49;;;;;;;28.95;14.32;;;;;;;;;;5077991;28;20147;-63
2021/12/11 03:43:17;;;;;;;26.30;14.13;;;;;;;;;;5082231;28;20123;-63
2021/12/11 03:45:45;;;;;;;30.75;14.57;;;;;;;;;;5078271;28;20059;-63
2021/12/11 03:48:14;;;;;;;27.20;14.63;;;;;;;;;;5080023;28;20065;-63
2021/12/11 03:50:40;;;;;;;28.67;14.27;;;;;;;;;;5078200;28;20135;-63
2021/12/11 03:53:09;;;;;;;29.35;15.48;;;;;;;;;;5079238;28;20502;-63
2021/12/11 03:55:46;;;;;;;25.58;14.02;;;;;;;;;;5081356;28;20091;-63
2021/12/11 03:58:13;;;;;;;31.08;15.60;;;;;;;;;;5080505;28;20118;-63
2021/12/11 04:00:43;;;;;;;32.73;15.43;;;;;;;;;;5077525;28;20123;-63
2021/12/11 04:03:12;;;;;;;31.50;15.45;;;;;;;;;;5081912;28;20131;-63
2021/12/11 04:05:40;;;;;;;31.05;15.82;;;;;;;;;;5078086;28;20053;-63
2021/12/11 04:08:10;;;;;;;27.88;14.18;;;;;;;;;;5064108;28;20092;-63
2021/12/11 04:10:36;;;;;;;34.05;16.65;;;;;;;;;;5081678;28;20127;-63
2021/12/11 04:13:05;;;;;;;36.03;17.17;;;;;;;;;;5080220;28;20087;-63
2021/12/11 04:15:31;;;;;;;32.15;15.98;;;;;;;;;;5080500;28;20084;-63
2021/12/11 04:17:58;;;;;;;36.40;16.85;;;;;;;;;;5076689;28;20045;-63
2021/12/11 04:20:27;;;;;;;31.70;16.05;;;;;;;;;;5080357;28;20388;-63
2021/12/11 04:22:54;;;;;;;32.67;17.13;;;;;;;;;;5074615;28;20048;-64
2021/12/11 04:25:22;;;;;;;33.80;16.30;;;;;;;;;;5074710;28;20143;-62
2021/12/11 04:27:49;;;;;;;34.53;16.58;;;;;;;;;;5075137;28;20459;-63
2021/12/11 04:30:17;;;;;;;36.67;17.30;;;;;;;;;;5075212;28;20043;-63
2021/12/11 04:32:44;;;;;;;34.53;17.17;;;;;;;;;;5078123;28;20105;-63
2021/12/11 04:35:12;;;;;;;29.15;14.23;;;;;;;;;;5078409;28;20460;-63
2021/12/11 04:37:39;;;;;;;39.47;18.00;;;;;;;;;;5078431;28;20062;-63
2021/12/11 04:40:11;;;;;;;35.03;17.60;;;;;;;;;;5078113;28;20040;-63
2021/12/11 04:42:56;;;;;;;34.15;17.02;;;;;;;;;;5078328;28;20093;-63
2021/12/11 04:45:27;;;;;;;34.95;18.65;;;;;;;;;;5077989;28;20040;-63
2021/12/11 04:48:00;;;;;;;39.40;18.48;;;;;;;;;;5077730;28;20559;-64
2021/12/11 04:51:20;;;;;;;38.08;18.35;;;;;;;;;;5078552;28;20150;-63
2021/12/11 04:53:32;;;;;;;42.58;18.92;;;;;;;;;;5070576;28;20079;-63
2021/12/11 04:58:51;;;;;;;39.60;19.77;;;;;;;;;;5084952;28;20062;-63
2021/12/11 05:11:51;;;;;;;45.97;20.45;;;;;;;;;;5078866;28;20144;-63
2021/12/11 05:14:19;;;;;;;44.33;21.05;;;;;;;;;;5077248;28;20672;-63
2021/12/11 05:16:45;;;;;;;47.45;21.35;;;;;;;;;;5077670;28;20054;-63
2021/12/11 05:19:12;;;;;;;47.22;21.90;;;;;;;;;;5078058;28;20395;-63
2021/12/11 05:21:40;;;;;;;42.03;20.65;;;;;;;;;;5076937;28;20146;-63
2021/12/11 05:24:06;;;;;;;;;;;;;;;;;;5078384;28;20048;-63
2021/12/11 05:26:33;;;;;;;46.03;20.67;;;;;;;;;;5080522;28;19924;-63
2021/12/11 05:29:00;;;;;;;45.00;21.30;;;;;;;;;;5083184;28;20075;-63
2021/12/11 05:31:26;;;;;;;37.83;17.58;;;;;;;;;;5083075;28;20056;-63
2021/12/11 05:33:53;;;;;;;34.10;15.88;;;;;;;;;;5075431;28;20049;-63
2021/12/11 05:36:20;;;;;;;45.88;21.40;;;;;;;;;;5081906;28;20086;-63
2021/12/11 05:38:49;;;;;;;46.15;21.98;;;;;;;;;;5076927;28;20140;-63
2021/12/11 05:41:18;;;;;;;48.25;21.52;;;;;;;;;;5082364;28;20141;-63
2021/12/11 05:43:44;;;;;;;42.78;19.55;;;;;;;;;;5081482;28;20123;-63
2021/12/11 05:46:13;;;;;;;50.50;22.90;;;;;;;;;;5079486;28;20057;-63
2021/12/11 05:48:40;;;;;;;48.10;22.33;;;;;;;;;;5084043;28;20407;-63
2021/12/11 05:51:08;;;;;;;45.05;20.45;;;;;;;;;;5083198;28;20487;-63
2021/12/11 05:53:35;;;;;;;46.97;20.95;;;;;;;;;;5081418;28;20094;-63
2021/12/11 05:56:07;;;;;;;49.88;23.77;;;;;;;;;;5082188;28;20155;-63
2021/12/11 05:59:16;;;;;;;45.28;21.67;;;;;;;;;;5082497;28;20119;-63
2021/12/11 06:01:29;;;;;;;46.67;21.23;;;;;;;;;;5067490;28;20084;-63
2021/12/11 06:03:57;;;;;;;51.13;22.60;;;;;;;;;;5080516;28;20045;-63
2021/12/11 06:06:24;;;;;;;44.15;21.10;;;;;;;;;;5082488;28;20492;-63
2021/12/11 06:08:51;;;;;;;47.83;22.40;;;;;;;;;;5083717;28;20139;-63
2021/12/11 06:11:18;;;;;;;48.42;21.70;;;;;;;;;;5080741;28;20141;-63
2021/12/11 06:13:45;;;;;;;50.47;20.77;;;;;;;;;;5079891;28;20123;-62
2021/12/11 06:16:12;;;;;;;46.85;20.75;;;;;;;;;;5084255;28;20052;-63
2021/12/11 06:18:38;;;;;;;48.40;22.42;;;;;;;;;;5078996;28;20052;-63
2021/12/11 06:21:05;;;;;;;46.25;20.45;;;;;;;;;;5077244;28;20084;-63
2021/12/11 06:23:31;;;;;;;51.25;21.88;;;;;;;;;;5077637;28;20044;-63
2021/12/11 06:25:58;;;;;;;48.17;23.00;;;;;;;;;;5075808;28;20113;-63
2021/12/11 06:28:26;;;;;;;52.33;24.27;;;;;;;;;;5076545;28;20075;-63
2021/12/11 06:30:57;;;;;;;54.00;23.58;;;;;;;;;;5075577;28;20135;-63
2021/12/11 06:33:27;;;;;;;49.53;22.42;;;;;;;;;;5059085;28;20047;-63
2021/12/11 06:36:05;;;;;;;50.50;21.80;;;;;;;;;;5075794;28;20055;-63
2021/12/11 06:38:33;;;;;;;54.15;23.95;;;;;;;;;;5074514;28;20040;-63
2021/12/11 06:40:59;;;;;;;;;;;;;;;;;;5077326;28;20052;-63
2021/12/11 06:43:26;;;;;;;57.28;21.20;;;;;;;;;;5075980;28;20499;-63
2021/12/11 06:45:53;;;;;;;49.90;22.23;;;;;;;;;;5075021;28;20072;-63
2021/12/11 06:48:20;;;;;;;50.88;23.33;;;;;;;;;;5076627;28;20135;-63
2021/12/11 06:50:47;;;;;;;51.65;23.77;;;;;;;;;;5076856;28;20938;-63
2021/12/11 06:53:21;;;;;;;58.08;24.42;;;;;;;;;;5075022;28;20048;-63
2021/12/11 06:55:48;;;;;;;49.00;23.65;;;;;;;;;;5075241;28;20048;-63
2021/12/11 06:58:14;;;;;;;53.65;23.15;;;;;;;;;;5076037;28;20075;-63
2021/12/11 07:00:41;;;;;;;54.05;23.73;;;;;;;;;;5075414;28;20381;-63
2021/12/11 07:03:08;;;;;;;43.97;18.23;;;;;;;;;;5074299;28;20174;-63
2021/12/11 07:05:37;;;;;;;58.22;24.00;;;;;;;;;;5077599;28;20051;-63
2021/12/11 07:08:07;;;;;;;54.55;23.63;;;;;;;;;;5078394;28;20626;-63
2021/12/11 07:10:34;;;;;;;54.58;23.17;;;;;;;;;;5080927;28;20576;-63
2021/12/11 07:13:01;;;;;;;55.15;24.52;;;;;;;;;;5078827;28;20131;-63
2021/12/11 07:15:27;;;;;;;51.07;22.90;;;;;;;;;;5080272;28;20124;-63
2021/12/11 07:17:54;;;;;;;56.92;24.45;;;;;;;;;;5078373;28;20326;-63
2021/12/11 07:20:20;;;;;;;51.80;23.33;;;;;;;;;;5076160;28;20046;-63
2021/12/11 07:22:47;;;;;;;54.28;25.25;;;;;;;;;;5074267;28;20139;-63
2021/12/11 07:25:16;;;;;;;53.83;23.33;;;;;;;;;;5074995;28;20174;-63
2021/12/11 07:27:42;;;;;;;57.03;24.77;;;;;;;;;;5076992;28;20131;-63
2021/12/11 07:30:10;;;;;;;38.00;17.83;;;;;;;;;;5076662;28;20067;-63
2021/12/11 07:32:37;;;;;;;57.75;24.80;;;;;;;;;;5074932;28;20142;-62
2021/12/11 07:35:04;;;;;;;;;;;;;;;;;;5076977;28;20063;-60
2021/12/11 07:37:30;;;;;;;53.55;22.00;;;;;;;;;;5083308;28;19928;-61
2021/12/11 07:39:57;;;;;;;43.25;18.42;;;;;;;;;;5075116;28;20136;-61
2021/12/11 07:42:28;;;;;;;57.00;24.30;;;;;;;;;;5073352;28;20411;-61
2021/12/11 07:44:55;;;;;;;52.42;24.42;;;;;;;;;;5073771;28;20049;-61
2021/12/11 07:47:22;;;;;;;58.55;24.02;;;;;;;;;;5075698;28;20139;-61
2021/12/11 07:49:48;;;;;;;57.95;24.40;;;;;;;;;;5074841;28;20052;-61
2021/12/11 07:52:15;;;;;;;58.67;24.83;;;;;;;;;;5074779;28;20041;-61
2021/12/11 07:54:42;;;;;;;60.88;25.92;;;;;;;;;;5074112;28;20136;-61
2021/12/11 07:57:09;;;;;;;56.38;23.85;;;;;;;;;;5075891;28;20065;-61
2021/12/11 07:59:35;;;;;;;59.58;25.77;;;;;;;;;;5073949;28;20087;-61
2021/12/11 08:02:03;;;;;;;56.63;25.20;;;;;;;;;;5074246;28;20055;-61
2021/12/11 08:04:29;;;;;;;59.30;26.00;;;;;;;;;;5080300;28;20045;-61
2021/12/11 08:06:56;;;;;;;58.38;25.35;;;;;;;;;;5082420;28;20284;-61
2021/12/11 08:09:23;;;;;;;70.10;26.23;;;;;;;;;;5077977;28;20140;-61
2021/12/11 08:11:49;;;;;;;63.85;26.67;;;;;;;;;;5083061;28;20715;-61
2021/12/11 08:14:16;;;;;;;64.95;26.33;;;;;;;;;;5082432;28;20075;-61
2021/12/11 08:16:47;;;;;;;69.10;27.27;;;;;;;;;;5082849;28;20479;-61
2021/12/11 08:19:18;;;;;;;65.57;27.10;;;;;;;;;;5085403;28;20132;-61
2021/12/11 08:21:46;;;;;;;61.85;25.88;;;;;;;;;;5081665;28;20144;-61
2021/12/11 08:24:13;;;;;;;71.50;27.90;;;;;;;;;;5084855;28;20147;-61
2021/12/11 08:26:41;;;;;;;69.07;27.52;;;;;;;;;;5082274;28;20170;-61
2021/12/11 08:29:09;;;;;;;69.65;28.20;;;;;;;;;;5082669;28;20499;-61
2021/12/11 08:31:37;;;;;;;63.13;27.13;;;;;;;;;;5081374;28;20087;-61
2021/12/11 08:34:04;;;;;;;67.28;28.83;;;;;;;;;;5086512;28;20611;-61
2021/12/11 08:36:30;;;;;;;60.25;27.60;;;;;;;;;;5082034;28;20134;-61
2021/12/11 08:38:59;;;;;;;53.00;22.07;;;;;;;;;;5081415;28;20131;-61
2021/12/11 08:41:27;;;;;;;65.90;27.15;;;;;;;;;;5084004;28;20141;-60
2021/12/11 08:44:03;;;;;;;69.53;28.92;;;;;;;;;;5077799;28;20086;-61
2021/12/11 08:46:31;;;;;;;67.65;27.35;;;;;;;;;;5076560;28;20491;-62
2021/12/11 08:48:59;;;;;;;66.78;28.02;;;;;;;;;;5083229;28;20044;-61
2021/12/11 08:51:33;;;;;;;69.65;27.95;;;;;;;;;;5082265;28;20127;-61
2021/12/11 08:54:06;;;;;;;65.35;27.35;;;;;;;;;;5081013;28;20131;-62
2021/12/11 08:56:34;;;;;;;68.97;27.27;;;;;;;;;;5083018;28;20088;-61
2021/12/11 08:59:02;;;;;;;67.00;26.20;;;;;;;;;;5082896;28;20142;-62
2021/12/11 09:01:28;;;;;;;;;;;;;;;;;;5077076;28;20131;-61
2021/12/11 09:03:58;;;;;;;73.35;27.35;;;;;;;;;;5083293;28;19999;-61
2021/12/11 09:06:31;;;;;;;69.45;26.23;;;;;;;;;;5079536;28;20123;-61
2021/12/11 09:09:07;;;;;;;82.00;28.42;;;;;;;;;;5081041;28;20135;-61
2021/12/11 09:11:39;;;;;;;79.75;28.73;;;;;;;;;;5077310;28;20131;-61
2021/12/11 09:14:32;;;;;;;70.60;27.02;;;;;;;;;;5086326;28;20457;-62
2021/12/11 09:17:06;;;;;;;74.68;27.40;;;;;;;;;;5079020;28;20127;-61
2021/12/11 09:19:59;;;;;;;71.45;28.65;;;;;;;;;;5077245;28;20048;-62
2021/12/11 09:22:29;;;;;;;87.95;31.33;;;;;;;;;;5077777;28;20098;-61
2021/12/11 09:25:19;;;;;;;80.82;28.08;;;;;;;;;;5083967;28;20083;-61
2021/12/11 09:27:58;;;;;;;102.35;32.13;;;;;;;;;;5074459;28;20048;-61
2021/12/11 09:30:37;;;;;;;78.88;29.17;;;;;;;;;;5082456;28;20127;-61
2021/12/11 09:33:08;;;;;;;82.65;30.27;;;;;;;;;;5080255;28;20598;-62
2021/12/11 09:35:38;;;;;;;76.65;28.85;;;;;;;;;;5081192;28;20101;-61
2021/12/11 09:38:31;;;;;;;82.57;29.65;;;;;;;;;;5075949;28;20090;-61
2021/12/11 09:40:58;;;;;;;88.03;29.40;;;;;;;;;;5073594;28;20469;-62
2021/12/11 09:43:35;;;;;;;77.50;29.63;;;;;;;;;;5058658;28;20461;-61
2021/12/11 09:46:03;;;;;;;86.18;30.63;;;;;;;;;;5061050;28;20485;-61
2021/12/11 09:48:29;;;;;;;75.35;29.60;;;;;;;;;;5063015;28;20044;-61
2021/12/11 09:51:02;;;;;;;74.25;30.13;;;;;;;;;;5057143;28;20072;-62
2021/12/11 09:53:33;;;;;;;68.47;28.88;;;;;;;;;;5060271;28;20103;-62
2021/12/11 09:56:00;;;;;;;74.38;30.33;;;;;;;;;;5062572;28;20049;-62
2021/12/11 09:58:29;;;;;;;72.85;29.98;;;;;;;;;;5062110;28;20047;-62
2021/12/11 10:00:58;;;;;;;71.70;29.70;;;;;;;;;;5078878;28;20127;-61
2021/12/11 10:03:30;;;;;;;73.90;29.00;;;;;;;;;;5081313;28;20422;-61
2021/12/11 10:06:00;;;;;;;68.78;30.05;;;;;;;;;;5077659;28;20127;-62
2021/12/11 10:08:36;;;;;;;70.78;30.45;;;;;;;;;;5083993;28;20048;-61
2021/12/11 10:11:08;;;;;;;69.47;29.67;;;;;;;;;;5078094;28;20188;-61
2021/12/11 10:13:41;;;;;;;71.78;29.48;;;;;;;;;;5081420;28;20484;-61
2021/12/11 10:16:08;;;;;;;64.75;29.55;;;;;;;;;;5079911;28;20080;-61
2021/12/11 10:18:34;;;;;;;69.95;30.15;;;;;;;;;;5079734;28;20127;-61
2021/12/11 10:21:10;;;;;;;66.30;30.48;;;;;;;;;;5079698;28;20040;-61
2021/12/11 10:23:38;;;;;;;70.10;28.65;;;;;;;;;;5083623;28;20110;-61
2021/12/11 10:26:10;;;;;;;;;;;;;;;;;;5076665;28;20096;-61
2021/12/11 10:28:41;;;;;;;69.53;28.08;;;;;;;;;;5074389;28;19964;-62
2021/12/11 10:31:11;;;;;;;66.28;29.42;;;;;;;;;;5079229;28;20040;-62
2021/12/11 10:33:38;;;;;;;66.07;28.83;;;;;;;;;;5083079;28;20105;-61
2021/12/11 10:36:13;;;;;;;68.38;29.58;;;;;;;;;;5080283;28;20454;-61
2021/12/11 10:38:41;;;;;;;68.72;29.00;;;;;;;;;;5078473;28;20842;-61
2021/12/11 10:41:22;;;;;;;68.10;29.33;;;;;;;;;;5078726;28;20504;-61
2021/12/11 10:43:53;;;;;;;61.90;28.98;;;;;;;;;;5082294;28;20131;-61
2021/12/11 10:46:23;;;;;;;61.80;28.45;;;;;;;;;;5062474;28;20487;-61
2021/12/11 10:48:51;;;;;;;68.47;28.88;;;;;;;;;;5076900;28;20144;-62
2021/12/11 10:51:17;;;;;;;;;;;;;;;;;;5080184;28;20050;-61
2021/12/11 10:53:46;;;;;;;67.93;28.48;;;;;;;;;;5079089;28;19971;-61
2021/12/11 10:56:15;;;;;;;68.18;28.85;;;;;;;;;;5083106;28;20075;-61
2021/12/11 10:58:43;;;;;;;66.13;29.30;;;;;;;;;;5071906;28;20127;-61
2021/12/11 11:01:29;;;;;;;67.03;28.98;;;;;;;;;;5077297;28;20127;-61
2021/12/11 11:04:04;;;;;;;72.00;31.00;;;;;;;;;;5079599;28;20679;-61
2021/12/11 11:06:30;;;;;;;68.20;30.10;;;;;;;;;;5081312;28;20144;-61
2021/12/11 11:08:57;;;;;;;76.03;30.90;;;;;;;;;;5083318;28;20055;-62
2021/12/11 11:11:25;;;;;;;73.57;30.50;;;;;;;;;;5084825;28;20086;-61
2021/12/11 11:13:52;;;;;;;76.20;32.00;;;;;;;;;;5074172;28;20091;-61
2021/12/11 11:16:20;;;;;;;79.70;31.58;;;;;;;;;;5080454;28;20080;-61
2021/12/11 11:18:47;;;;;;;77.13;31.45;;;;;;;;;;5080061;28;20481;-61
2021/12/11 11:21:20;;;;;;;76.10;31.52;;;;;;;;;;5075509;28;20083;-61
2021/12/11 11:23:49;;;;;;;76.22;31.10;;;;;;;;;;5079651;28;20563;-61
2021/12/11 11:26:18;;;;;;;70.18;31.02;;;;;;;;;;5079842;28;20084;-61
2021/12/11 11:28:44;;;;;;;75.85;29.42;;;;;;;;;;5078630;28;20115;-61
2021/12/11 11:31:14;;;;;;;82.35;31.33;;;;;;;;;;5082328;28;20534;-62
2021/12/11 11:33:41;;;;;;;73.18;30.13;;;;;;;;;;5077488;28;20053;-62
2021/12/11 11:36:08;;;;;;;;;;;;;;;;;;5081446;28;20513;-61
2021/12/11 11:38:37;;;;;;;63.80;26.75;;;;;;;;;;5079878;28;19983;-61
2021/12/11 11:41:07;;;;;;;71.15;30.00;;;;;;;;;;5079210;28;20435;-62
2021/12/11 11:43:34;;;;;;;70.55;30.10;;;;;;;;;;5076090;28;20487;-61
2021/12/11 11:46:01;;;;;;;72.35;29.00;;;;;;;;;;5075510;28;20110;-61
2021/12/11 11:48:29;;;;;;;65.95;28.75;;;;;;;;;;5081642;28;20060;-62
2021/12/11 11:51:16;;;;;;;70.00;28.48;;;;;;;;;;5076315;28;20041;-61
2021/12/11 11:53:50;;;;;;;69.00;28.27;;;;;;;;;;5056752;28;20539;-62
2021/12/11 11:56:19;;;;;;;70.47;29.67;;;;;;;;;;5076280;28;20171;-61
2021/12/11 11:58:46;;;;;;;68.90;30.00;;;;;;;;;;5080239;28;20123;-61
2021/12/11 12:01:40;;;;;;;72.05;29.60;;;;;;;;;;5061263;28;20045;-61
2021/12/11 12:04:11;;;;;;;70.05;28.17;;;;;;;;;;5059290;28;20128;-62
2021/12/11 12:06:39;;;;;;;74.35;30.60;;;;;;;;;;5061936;28;20518;-62
2021/12/11 12:09:07;;;;;;;66.60;29.25;;;;;;;;;;5051798;28;20133;-62
2021/12/11 12:11:35;;;;;;;67.35;29.30;;;;;;;;;;5057128;28;20128;-61
2021/12/11 12:14:10;;;;;;;65.30;29.60;;;;;;;;;;5052817;28;20168;-62
2021/12/11 12:16:39;;;;;;;64.55;29.27;;;;;;;;;;5051350;28;20076;-61
2021/12/11 12:19:05;;;;;;;66.50;29.33;;;;;;;;;;5057629;28;20098;-61
2021/12/11 12:21:40;;;;;;;64.13;29.08;;;;;;;;;;5056254;28;20052;-62
2021/12/11 12:24:07;;;;;;;62.70;28.65;;;;;;;;;;5060071;28;20132;-62
2021/12/11 12:26:34;;;;;;;62.55;28.90;;;;;;;;;;5051700;28;20412;-61
2021/12/11 12:29:09;;;;;;;64.53;28.80;;;;;;;;;;5060399;28;20058;-62
2021/12/11 12:31:38;;;;;;;61.38;27.65;;;;;;;;;;5055400;28;20531;-62
2021/12/11 12:34:07;;;;;;;62.65;27.05;;;;;;;;;;5058856;28;20087;-62
2021/12/11 12:36:34;;;;;;;64.88;29.60;;;;;;;;;;5056933;28;20123;-61
2021/12/11 12:39:01;;;;;;;64.38;27.98;;;;;;;;;;5058369;28;20052;-61
2021/12/11 12:41:33;;;;;;;62.10;28.67;;;;;;;;;;5058039;28;20517;-62
2021/12/11 12:46:55;;;;;;;;;;;;;;;;;;5060255;28;20059;-61
2021/12/11 12:49:30;;;;;;;62.83;27.73;;;;;;;;;;5056332;28;19939;-61
2021/12/11 12:52:06;;;;;;;71.03;30.02;;;;;;;;;;5053662;28;20135;-61
2021/12/11 12:54:40;;;;;;;68.20;29.58;;;;;;;;;;5060069;28;20136;-61
2021/12/11 12:57:14;;;;;;;65.23;30.10;;;;;;;;;;5061496;28;20444;-61
2021/12/11 12:59:43;;;;;;;63.13;28.88;;;;;;;;;;5061221;28;20120;-62
2021/12/11 13:02:13;;;;;;;65.72;29.83;;;;;;;;;;5062367;28;20143;-61
2021/12/11 13:05:00;;;;;;;72.13;31.35;;;;;;;;;;5055612;28;20053;-61
2021/12/11 13:07:47;;;;;;;68.13;30.27;;;;;;;;;;5065911;28;20044;-62
2021/12/11 13:10:19;;;;;;;75.97;31.23;;;;;;;;;;5059208;28;20388;-61
2021/12/11 13:12:47;;;;;;;69.97;29.92;;;;;;;;;;5057896;28;20099;-61
2021/12/11 13:15:17;;;;;;;72.10;31.00;;;;;;;;;;5058407;28;20096;-62
2021/12/11 13:17:45;;;;;;;70.25;30.80;;;;;;;;;;5060857;28;20040;-61
2021/12/11 13:20:18;;;;;;;71.72;30.23;;;;;;;;;;5061980;28;20084;-61
2021/12/11 13:22:45;;;;;;;72.82;30.33;;;;;;;;;;5062485;28;20147;-61
2021/12/11 13:25:21;;;;;;;78.78;31.27;;;;;;;;;;5062206;28;20051;-61
2021/12/11 13:27:50;;;;;;;83.40;31.67;;;;;;;;;;5058761;28;20461;-61
2021/12/11 13:30:18;;;;;;;88.03;31.77;;;;;;;;;;5061144;28;20055;-62
2021/12/11 13:32:45;;;;;;;97.35;33.47;;;;;;;;;;5059704;28;20103;-61
2021/12/11 13:35:13;;;;;;;77.63;30.88;;;;;;;;;;5060519;28;20468;-61
2021/12/11 13:37:40;;;;;;;86.05;32.17;;;;;;;;;;5064107;28;20126;-61
2021/12/11 13:40:08;;;;;;;92.03;32.92;;;;;;;;;;5057120;28;20059;-61
2021/12/11 13:42:36;;;;;;;85.93;32.63;;;;;;;;;;5057726;28;20135;-61
2021/12/11 13:45:14;;;;;;;93.75;34.30;;;;;;;;;;5056453;28;20087;-62
2021/12/11 13:47:42;;;;;;;84.28;33.25;;;;;;;;;;5082839;28;20059;-61
2021/12/11 13:50:18;;;;;;;89.90;34.13;;;;;;;;;;5078816;28;20062;-61
2021/12/11 13:52:45;;;;;;;95.57;32.80;;;;;;;;;;5081688;28;20606;-62
2021/12/11 13:55:12;;;;;;;70.57;24.77;;;;;;;;;;5080144;28;20057;-62
2021/12/11 13:57:57;;;;;;;88.00;31.02;;;;;;;;;;5084765;28;20302;-61
2021/12/11 14:00:30;;;;;;;105.68;33.33;;;;;;;;;;5079011;28;20551;-61
2021/12/11 14:03:08;;;;;;;230.25;31.38;;;;;;;;;;5062716;28;20102;-61
2021/12/11 14:05:35;;;;;;;129.18;30.20;;;;;;;;;;5082215;28;20072;-61
2021/12/11 14:08:07;;;;;;;107.28;30.60;;;;;;;;;;5082492;28;20530;-61
2021/12/11 14:10:35;;;;;;;118.03;36.80;;;;;;;;;;5084281;28;20048;-61
2021/12/11 14:13:05;;;;;;;126.20;34.92;;;;;;;;;;5084239;28;20582;-61
2021/12/11 14:15:32;;;;;;;115.38;34.90;;;;;;;;;;5082890;28;20260;-61
2021/12/11 14:17:59;;;;;;;;;;;;;;;;;;5077798;28;20091;-61
2021/12/11 14:20:31;;;;;;;118.20;27.27;;;;;;;;;;5080165;28;19986;-61
2021/12/11 14:23:02;;;;;;;110.32;30.65;;;;;;;;;;5077414;28;20041;-61
2021/12/11 14:25:32;;;;;;;100.40;31.95;;;;;;;;;;5079847;28;20064;-61
2021/12/11 14:28:03;;;;;;;131.07;32.17;;;;;;;;;;5083119;28;20136;-61
2021/12/11 14:30:31;;;;;;;106.65;30.45;;;;;;;;;;5079486;28;20509;-61
2021/12/11 14:32:59;;;;;;;362.38;35.80;;;;;;;;;;5078750;28;20802;-61
2021/12/11 14:35:27;;;;;;;199.05;31.75;;;;;;;;;;5081521;28;20492;-61
2021/12/11 14:37:57;;;;;;;115.40;33.45;;;;;;;;;;5076997;28;20131;-61
2021/12/11 14:40:26;;;;;;;92.55;32.05;;;;;;;;;;5079585;28;20079;-61
2021/12/11 14:42:53;;;;;;;58.50;21.80;;;;;;;;;;5079106;28;20519;-62
2021/12/11 14:45:26;;;;;;;66.32;23.17;;;;;;;;;;5078728;28;20036;-62
2021/12/11 14:47:54;;;;;;;223.45;33.20;;;;;;;;;;5077175;28;20644;-62
2021/12/11 14:50:22;;;;;;;111.05;31.83;;;;;;;;;;5078390;28;20131;-62
2021/12/11 14:52:50;;;;;;;111.57;34.30;;;;;;;;;;5080253;28;20059;-62
2021/12/11 14:55:29;;;;;;;106.97;34.17;;;;;;;;;;5076834;28;20072;-61